x

Seal Rocks - Between Montague And Hinchinbrook Islands, Ak (46061) Wave Buoy

10:50pm - Wed 27th May 2015 All times are AKDT. -8 hours from GMT.

  • Sig Wave height 3.3ft
  • Swell Direction
  • Peak Period 7s
  • Average Period 6s
  • Wind
    11mph, 13mph gusts
  • Sea Temp 51°f
  • Air Temp 50°f
  • Sea Pressure 1025.4mb
  • Seal Rocks - Between Montague And Hinchinbrook Islands, Ak
  • Seal Rocks - Between Montague And Hinchinbrook Islands, Ak

More Historic Weather Station data

Upgrade to MSW Pro to gain access to the past 30 days of data for over 8000 Wavebouys and Weather Stations around the globe.

Join Pro

Comparision Forecast

View Surf forecast
   
Wed 05/27 10:50pm 3.5ft 7s 6s 11 13 mph 1025.4mb 51f 50f
9:50pm 3.5ft 7s 6s 7
mph
1025.1mb 52f 51f
8:50pm 3.5ft 7s 6s 2 4 mph 1024.9mb 52f 51f
7:50pm 3ft 7s 6s 9
mph
1024.6mb 52f 51f
6:50pm 3ft 6s 5s 4 7 mph 1024.5mb 52f 52f
5:50pm 3.5ft 6s 5s 7 9 mph 1024.1mb 52f 51f
4:50pm 3.5ft 7s 6s 4
mph
1024mb 52f 52f
3:50pm 3.5ft 6s 6s 7 9 mph 1023.8mb 52f 51f
2:50pm 3ft 7s 6s 7
mph
1023.5mb 51f 51f
1:50pm 3ft 7s 6s 7
mph
1023mb 51f 51f
12:50pm 2.5ft 7s 6s 4
mph
1022.8mb 51f 51f
11:50am 2.5ft 6s 6s 4 7 mph 1022.6mb 51f 52f
10:50am 2.5ft 6s 6s 4 9 mph 1022.3mb 51f 53f
9:50am 2.5ft 7s 6s 7 9 mph 1022.3mb 51f 53f
8:50am 2.5ft 6s 6s 13 16 mph 1022mb 51f 52f
7:50am 2.5ft 7s 5s 2
mph
1022.1mb 51f 53f
6:50am 2.5ft 17s 5s 2
mph
1022.2mb 51f 52f
5:50am 2ft 14s 5s  -  2 mph 1022.3mb 51f 50f
4:50am 2ft 17s 5s 2 4 mph 1022.2mb 51f 50f
3:50am 2ft 5s 5s 4
mph
1022.3mb 51f 50f
2:50am 2.5ft 15s 5s 2 4 mph 1022.6mb 51f 50f
1:50am 2.5ft 15s 6s 4 7 mph 1022.7mb 51f 50f
12:50am 2.5ft 9s 6s 7 9 mph 1022.8mb 51f 50f
Tue 05/26 11:50pm 2.5ft 5s 5s 2 4 mph 1022.6mb 52f 50f
10:50pm 2.5ft 5s 5s  -  2 mph 1022.4mb 51f 50f
9:50pm 2.5ft 5s 5s  -  mph 1022mb 51f 51f
8:50pm 2.5ft 14s 5s 4
mph
1021.9mb 51f 51f
7:50pm 2.5ft 14s 5s 7 9 mph 1021.9mb 51f 51f
6:50pm 2.5ft 14s 5s 7 9 mph 1021.9mb 51f 51f
5:50pm 2.5ft 15s 5s 7 9 mph 1022.2mb 51f 51f
4:50pm 2.5ft 14s 5s 4
mph
1022.2mb 51f 51f
3:50pm 2.5ft 15s 5s 2
mph
1022.1mb 51f 51f
2:50pm 2.5ft 15s 4s 7 9 mph 1021.8mb 51f 49f
1:50pm 2.5ft 15s 5s 13 16 mph 1021.7mb 50f 48f
12:50pm 2ft 15s 6s 13
mph
1021.5mb 50f 48f
11:50am 2ft 15s 7s 7 11 mph 1021.3mb 51f 49f
10:50am 2ft 9s 7s 2 4 mph 1021mb 51f 49f
9:50am 1.6ft 15s 6s 9 11 mph 1020.7mb 50f 49f
8:50am 2ft 15s 7s 2
mph
1020.5mb 50f 49f
7:50am 2ft 9s 6s 4 7 mph 1020.5mb 49f 48f
6:50am 2ft 10s 6s 4 7 mph 1020.6mb 49f 48f
5:50am 2ft 7s 6s 7 9 mph 1020.5mb 49f 48f
4:50am 2ft 15s 6s 9
mph
1020.6mb 49f 48f
3:50am 1.6ft 15s 5s 7
mph
1020.8mb 49f 48f
2:50am 2ft 16s 6s  -  2 mph 1021.1mb 49f 48f
1:50am 2.5ft 9s 6s  -  2 mph 1021.1mb 49f 48f
12:50am 2.5ft 16s 7s 2 4 mph 1021.1mb 49f 48f
Mon 05/25 11:50pm 2.5ft 9s 7s  -  mph 1021.3mb 48f 48f
10:50pm 2.5ft 9s 6s 4 7 mph 1021.2mb 49f 48f
9:50pm 2.5ft 10s 7s 7
mph
1021.3mb 49f 49f
8:50pm 2.5ft 10s 7s 9 11 mph 1021.5mb 49f 49f
7:50pm 2.5ft 10s 7s 9 11 mph 1021.6mb 49f 49f
6:50pm 2.5ft 10s 7s 9 11 mph 1021.9mb 50f 49f
5:50pm 2ft 11s 7s 9 11 mph 1022.2mb 50f 49f
4:50pm 2ft 8s 7s 9 11 mph 1022.5mb 49f 49f
3:50pm 2ft 16s 6s 9
mph
1022.4mb 49f 48f
2:50pm 2ft 10s 6s 7 9 mph 1022.5mb 49f 48f
1:50pm 2.5ft 10s 7s 9
mph
1022.6mb 49f 48f
12:50pm 2.5ft 10s 7s 4 7 mph 1022.4mb 49f 48f
11:50am 2.5ft 8s 7s 4 7 mph 1022.2mb 50f 48f
10:50am 3ft 10s 8s 7 9 mph 1022mb 50f 47f
9:50am 3ft 11s 7s 7 9 mph 1021.7mb 50f 47f
8:50am 3ft 11s 7s 4 7 mph 1021.4mb 50f 47f
7:50am 3ft 10s 6s 7 9 mph 1021.1mb 50f 47f
6:50am 3ft 11s 6s 4 7 mph 1020.8mb 50f 47f
5:50am 3.5ft 11s 6s 7
mph
1020.9mb 49f 46f
4:50am 2.5ft 11s 6s 9
mph
1020.9mb 49f 47f
3:50am 3.5ft 11s 6s 9 11 mph 1021mb 49f 47f
2:50am 2.5ft 11s 6s 7 9 mph 1020.9mb 49f 47f
1:50am 2.5ft 11s 6s 7
mph
1020.8mb 49f 47f
12:50am 3ft 11s 6s 7 9 mph 1020.7mb 49f 47f
Sun 05/24 11:50pm 2.5ft 11s 6s 2 4 mph 1020.7mb 49f 47f
10:50pm 2.5ft 12s 6s 11 13 mph 1020.4mb 49f 48f
9:50pm 3ft 13s 5s 13 18 mph 1020.2mb 48f 48f
8:50pm 3.5ft 6s 5s 16 18 mph 1020mb 48f 48f
7:50pm 3.5ft 6s 5s 16 18 mph 1020.1mb 48f 48f
6:50pm 4ft 6s 5s 18 20 mph 1020.3mb 48f 48f
5:50pm 4ft 5s 5s 18 20 mph 1020.6mb 48f 47f
4:50pm 4ft 5s 5s 18 22 mph 1020.9mb 48f 47f
3:50pm 3.5ft 5s 5s 20 25 mph 1021.1mb 49f 48f
2:50pm 3.5ft 5s 5s 20 25 mph 1021.3mb 50f 48f
1:50pm 3.5ft 5s 5s 20 22 mph 1021.5mb 49f 48f
12:50pm 3.5ft 5s 5s 18 20 mph 1021.6mb 49f 48f
11:50am 3.5ft 8s 5s 18 22 mph 1021.5mb 48f 48f
10:50am 3.5ft 8s 5s 18 20 mph 1021.4mb 48f 47f
9:50am 2.5ft 8s 5s 18 20 mph 1021.6mb 48f 47f
8:50am 3ft 9s 5s 18 20 mph 1021.5mb 48f 47f
7:50am 3ft 8s 5s 16 18 mph 1021.6mb 48f 47f